sensor_id;sensor_type;location;lat;lon;timestamp;P1;durP1;ratioP1;P2;durP2;ratioP2
45114;SDS011;30877;43.706;10.780;2024-03-25T00:00:49;10.38;;;4.32;;
45114;SDS011;30877;43.706;10.780;2024-03-25T00:03:18;6.57;;;3.85;;
45114;SDS011;30877;43.706;10.780;2024-03-25T00:05:46;6.07;;;3.80;;
45114;SDS011;30877;43.706;10.780;2024-03-25T00:08:14;6.05;;;3.38;;
45114;SDS011;30877;43.706;10.780;2024-03-25T00:10:43;6.30;;;3.25;;
45114;SDS011;30877;43.706;10.780;2024-03-25T00:13:11;6.95;;;4.00;;
45114;SDS011;30877;43.706;10.780;2024-03-25T00:15:41;5.88;;;3.70;;
45114;SDS011;30877;43.706;10.780;2024-03-25T00:18:10;7.15;;;3.30;;
45114;SDS011;30877;43.706;10.780;2024-03-25T00:20:37;6.25;;;3.55;;
45114;SDS011;30877;43.706;10.780;2024-03-25T00:23:05;6.05;;;3.47;;
45114;SDS011;30877;43.706;10.780;2024-03-25T00:25:33;5.78;;;3.80;;
45114;SDS011;30877;43.706;10.780;2024-03-25T00:28:04;5.20;;;3.45;;
45114;SDS011;30877;43.706;10.780;2024-03-25T00:30:31;6.40;;;3.85;;
45114;SDS011;30877;43.706;10.780;2024-03-25T00:33:02;5.50;;;3.25;;
45114;SDS011;30877;43.706;10.780;2024-03-25T00:35:30;6.50;;;3.33;;
45114;SDS011;30877;43.706;10.780;2024-03-25T00:37:59;8.57;;;3.80;;
45114;SDS011;30877;43.706;10.780;2024-03-25T00:40:26;6.75;;;3.63;;
45114;SDS011;30877;43.706;10.780;2024-03-25T00:42:54;4.88;;;2.92;;
45114;SDS011;30877;43.706;10.780;2024-03-25T00:45:23;6.93;;;3.15;;
45114;SDS011;30877;43.706;10.780;2024-03-25T00:47:56;6.10;;;3.43;;
45114;SDS011;30877;43.706;10.780;2024-03-25T00:50:25;5.03;;;3.50;;
45114;SDS011;30877;43.706;10.780;2024-03-25T00:52:58;6.28;;;3.60;;
45114;SDS011;30877;43.706;10.780;2024-03-25T00:55:26;5.10;;;3.20;;
45114;SDS011;30877;43.706;10.780;2024-03-25T00:57:54;6.85;;;3.65;;
45114;SDS011;30877;43.706;10.780;2024-03-25T01:00:23;8.00;;;4.10;;
45114;SDS011;30877;43.706;10.780;2024-03-25T01:02:51;7.95;;;3.67;;
45114;SDS011;30877;43.706;10.780;2024-03-25T01:05:20;7.45;;;4.18;;
45114;SDS011;30877;43.706;10.780;2024-03-25T01:07:48;7.40;;;3.95;;
45114;SDS011;30877;43.706;10.780;2024-03-25T01:10:16;5.78;;;3.35;;
45114;SDS011;30877;43.706;10.780;2024-03-25T01:12:44;6.03;;;3.00;;
45114;SDS011;30877;43.706;10.780;2024-03-25T01:15:11;5.32;;;3.10;;
45114;SDS011;30877;43.706;10.780;2024-03-25T01:17:41;7.35;;;3.28;;
45114;SDS011;30877;43.706;10.780;2024-03-25T01:20:08;7.05;;;3.35;;
45114;SDS011;30877;43.706;10.780;2024-03-25T01:22:37;4.53;;;2.75;;
45114;SDS011;30877;43.706;10.780;2024-03-25T01:25:06;5.95;;;3.00;;
45114;SDS011;30877;43.706;10.780;2024-03-25T01:27:35;7.80;;;3.33;;
45114;SDS011;30877;43.706;10.780;2024-03-25T01:30:03;6.55;;;3.17;;
45114;SDS011;30877;43.706;10.780;2024-03-25T01:32:34;5.85;;;2.97;;
45114;SDS011;30877;43.706;10.780;2024-03-25T01:35:04;5.63;;;3.17;;
45114;SDS011;30877;43.706;10.780;2024-03-25T01:37:34;6.00;;;2.95;;
45114;SDS011;30877;43.706;10.780;2024-03-25T01:40:02;5.05;;;3.10;;
45114;SDS011;30877;43.706;10.780;2024-03-25T01:42:32;7.13;;;3.30;;
45114;SDS011;30877;43.706;10.780;2024-03-25T01:45:00;4.95;;;2.50;;
45114;SDS011;30877;43.706;10.780;2024-03-25T01:47:31;6.40;;;3.10;;
45114;SDS011;30877;43.706;10.780;2024-03-25T01:50:04;6.95;;;3.65;;
45114;SDS011;30877;43.706;10.780;2024-03-25T01:52:33;7.03;;;3.33;;
45114;SDS011;30877;43.706;10.780;2024-03-25T01:55:02;7.72;;;3.70;;
45114;SDS011;30877;43.706;10.780;2024-03-25T01:57:32;5.93;;;3.00;;
45114;SDS011;30877;43.706;10.780;2024-03-25T02:00:01;4.63;;;2.78;;
45114;SDS011;30877;43.706;10.780;2024-03-25T02:02:34;5.50;;;2.33;;
45114;SDS011;30877;43.706;10.780;2024-03-25T02:05:06;5.43;;;3.17;;
45114;SDS011;30877;43.706;10.780;2024-03-25T02:07:33;4.93;;;2.95;;
45114;SDS011;30877;43.706;10.780;2024-03-25T02:10:05;7.45;;;3.17;;
45114;SDS011;30877;43.706;10.780;2024-03-25T02:12:40;6.65;;;3.60;;
45114;SDS011;30877;43.706;10.780;2024-03-25T02:15:09;5.88;;;2.58;;
45114;SDS011;30877;43.706;10.780;2024-03-25T02:17:38;6.70;;;3.08;;
45114;SDS011;30877;43.706;10.780;2024-03-25T02:20:09;4.90;;;2.50;;
45114;SDS011;30877;43.706;10.780;2024-03-25T02:22:38;5.43;;;2.58;;
45114;SDS011;30877;43.706;10.780;2024-03-25T02:25:06;6.45;;;2.50;;
45114;SDS011;30877;43.706;10.780;2024-03-25T02:27:38;6.35;;;1.95;;
45114;SDS011;30877;43.706;10.780;2024-03-25T02:30:08;5.88;;;2.65;;
45114;SDS011;30877;43.706;10.780;2024-03-25T02:32:41;5.90;;;2.72;;
45114;SDS011;30877;43.706;10.780;2024-03-25T02:35:12;3.95;;;2.20;;
45114;SDS011;30877;43.706;10.780;2024-03-25T02:37:42;4.75;;;2.38;;
45114;SDS011;30877;43.706;10.780;2024-03-25T02:40:10;5.22;;;1.90;;
45114;SDS011;30877;43.706;10.780;2024-03-25T02:42:39;5.30;;;2.15;;
45114;SDS011;30877;43.706;10.780;2024-03-25T02:45:07;5.15;;;2.20;;
45114;SDS011;30877;43.706;10.780;2024-03-25T02:47:36;5.22;;;2.28;;
45114;SDS011;30877;43.706;10.780;2024-03-25T02:50:05;4.50;;;2.20;;
45114;SDS011;30877;43.706;10.780;2024-03-25T02:52:33;6.85;;;2.40;;
45114;SDS011;30877;43.706;10.780;2024-03-25T02:55:01;5.85;;;2.53;;
45114;SDS011;30877;43.706;10.780;2024-03-25T02:57:29;5.07;;;2.33;;
45114;SDS011;30877;43.706;10.780;2024-03-25T03:00:01;5.57;;;2.67;;
45114;SDS011;30877;43.706;10.780;2024-03-25T03:02:29;5.05;;;2.20;;
45114;SDS011;30877;43.706;10.780;2024-03-25T03:05:00;5.55;;;2.13;;
45114;SDS011;30877;43.706;10.780;2024-03-25T03:07:30;5.07;;;2.38;;
45114;SDS011;30877;43.706;10.780;2024-03-25T03:09:57;5.70;;;2.60;;
45114;SDS011;30877;43.706;10.780;2024-03-25T03:12:25;7.50;;;2.85;;
45114;SDS011;30877;43.706;10.780;2024-03-25T03:14:53;5.93;;;2.85;;
45114;SDS011;30877;43.706;10.780;2024-03-25T03:17:24;4.72;;;2.60;;
45114;SDS011;30877;43.706;10.780;2024-03-25T03:19:52;5.53;;;2.58;;
45114;SDS011;30877;43.706;10.780;2024-03-25T03:22:19;6.38;;;2.65;;
45114;SDS011;30877;43.706;10.780;2024-03-25T03:24:47;3.80;;;2.25;;
45114;SDS011;30877;43.706;10.780;2024-03-25T03:27:16;4.65;;;2.53;;
45114;SDS011;30877;43.706;10.780;2024-03-25T03:29:46;5.38;;;2.13;;
45114;SDS011;30877;43.706;10.780;2024-03-25T03:32:13;3.90;;;2.15;;
45114;SDS011;30877;43.706;10.780;2024-03-25T03:34:44;5.65;;;2.67;;
45114;SDS011;30877;43.706;10.780;2024-03-25T03:37:12;5.25;;;2.70;;
45114;SDS011;30877;43.706;10.780;2024-03-25T03:39:41;7.97;;;2.88;;
45114;SDS011;30877;43.706;10.780;2024-03-25T03:42:11;5.63;;;2.78;;
45114;SDS011;30877;43.706;10.780;2024-03-25T03:44:39;4.30;;;2.80;;
45114;SDS011;30877;43.706;10.780;2024-03-25T03:47:07;5.30;;;2.45;;
45114;SDS011;30877;43.706;10.780;2024-03-25T03:49:36;4.18;;;2.10;;
45114;SDS011;30877;43.706;10.780;2024-03-25T03:52:06;6.22;;;2.60;;
45114;SDS011;30877;43.706;10.780;2024-03-25T03:54:33;4.30;;;2.00;;
45114;SDS011;30877;43.706;10.780;2024-03-25T03:57:05;4.72;;;2.47;;
45114;SDS011;30877;43.706;10.780;2024-03-25T03:59:32;5.97;;;2.58;;
45114;SDS011;30877;43.706;10.780;2024-03-25T04:02:00;4.60;;;2.50;;
45114;SDS011;30877;43.706;10.780;2024-03-25T04:04:27;6.03;;;2.72;;
45114;SDS011;30877;43.706;10.780;2024-03-25T04:06:56;4.18;;;2.08;;
45114;SDS011;30877;43.706;10.780;2024-03-25T04:09:25;4.15;;;2.13;;
45114;SDS011;30877;43.706;10.780;2024-03-25T04:11:57;4.15;;;2.55;;
45114;SDS011;30877;43.706;10.780;2024-03-25T04:14:29;4.60;;;2.40;;
45114;SDS011;30877;43.706;10.780;2024-03-25T04:17:00;4.45;;;2.35;;
45114;SDS011;30877;43.706;10.780;2024-03-25T04:19:29;5.20;;;2.70;;
45114;SDS011;30877;43.706;10.780;2024-03-25T04:22:00;4.35;;;2.45;;
45114;SDS011;30877;43.706;10.780;2024-03-25T04:24:31;3.97;;;2.40;;
45114;SDS011;30877;43.706;10.780;2024-03-25T04:27:00;4.22;;;2.83;;
45114;SDS011;30877;43.706;10.780;2024-03-25T04:29:31;5.15;;;2.40;;
45114;SDS011;30877;43.706;10.780;2024-03-25T04:31:59;4.00;;;2.85;;
45114;SDS011;30877;43.706;10.780;2024-03-25T04:34:26;5.45;;;2.40;;
45114;SDS011;30877;43.706;10.780;2024-03-25T04:36:53;5.18;;;2.60;;
45114;SDS011;30877;43.706;10.780;2024-03-25T04:39:22;3.92;;;2.63;;
45114;SDS011;30877;43.706;10.780;2024-03-25T04:41:52;5.18;;;2.45;;
45114;SDS011;30877;43.706;10.780;2024-03-25T04:44:20;5.30;;;2.50;;
45114;SDS011;30877;43.706;10.780;2024-03-25T04:46:50;5.88;;;2.65;;
45114;SDS011;30877;43.706;10.780;2024-03-25T04:49:17;4.03;;;2.47;;
45114;SDS011;30877;43.706;10.780;2024-03-25T04:51:45;5.07;;;3.00;;
45114;SDS011;30877;43.706;10.780;2024-03-25T04:54:13;4.13;;;2.75;;
45114;SDS011;30877;43.706;10.780;2024-03-25T04:56:41;6.78;;;3.22;;
45114;SDS011;30877;43.706;10.780;2024-03-25T04:59:12;6.25;;;2.83;;
45114;SDS011;30877;43.706;10.780;2024-03-25T05:01:40;6.50;;;2.47;;
45114;SDS011;30877;43.706;10.780;2024-03-25T05:04:07;5.32;;;2.55;;
45114;SDS011;30877;43.706;10.780;2024-03-25T05:06:36;4.18;;;3.03;;
45114;SDS011;30877;43.706;10.780;2024-03-25T05:09:04;6.85;;;2.95;;
45114;SDS011;30877;43.706;10.780;2024-03-25T05:11:33;5.32;;;3.28;;
45114;SDS011;30877;43.706;10.780;2024-03-25T05:14:02;4.15;;;2.53;;
45114;SDS011;30877;43.706;10.780;2024-03-25T05:16:31;5.43;;;2.28;;
45114;SDS011;30877;43.706;10.780;2024-03-25T05:19:02;4.88;;;2.85;;
45114;SDS011;30877;43.706;10.780;2024-03-25T05:21:30;5.22;;;2.88;;
45114;SDS011;30877;43.706;10.780;2024-03-25T05:23:57;5.90;;;3.10;;
45114;SDS011;30877;43.706;10.780;2024-03-25T05:26:24;4.85;;;2.50;;
45114;SDS011;30877;43.706;10.780;2024-03-25T05:28:53;5.00;;;2.90;;
45114;SDS011;30877;43.706;10.780;2024-03-25T05:31:21;4.57;;;2.47;;
45114;SDS011;30877;43.706;10.780;2024-03-25T05:33:53;4.05;;;2.22;;
45114;SDS011;30877;43.706;10.780;2024-03-25T05:36:20;7.20;;;2.80;;
45114;SDS011;30877;43.706;10.780;2024-03-25T05:38:47;6.13;;;2.92;;
45114;SDS011;30877;43.706;10.780;2024-03-25T05:41:15;5.60;;;2.22;;
45114;SDS011;30877;43.706;10.780;2024-03-25T05:43:44;6.10;;;2.50;;
45114;SDS011;30877;43.706;10.780;2024-03-25T05:46:12;4.28;;;2.28;;
45114;SDS011;30877;43.706;10.780;2024-03-25T05:48:39;6.18;;;2.67;;
45114;SDS011;30877;43.706;10.780;2024-03-25T05:51:12;7.05;;;2.80;;
45114;SDS011;30877;43.706;10.780;2024-03-25T05:53:42;5.03;;;2.60;;
45114;SDS011;30877;43.706;10.780;2024-03-25T05:56:09;3.67;;;2.20;;
45114;SDS011;30877;43.706;10.780;2024-03-25T05:58:38;5.57;;;2.63;;
45114;SDS011;30877;43.706;10.780;2024-03-25T06:01:08;3.17;;;2.08;;
45114;SDS011;30877;43.706;10.780;2024-03-25T06:03:36;5.35;;;2.40;;
45114;SDS011;30877;43.706;10.780;2024-03-25T06:06:04;4.43;;;2.33;;
45114;SDS011;30877;43.706;10.780;2024-03-25T06:08:33;4.38;;;2.03;;
45114;SDS011;30877;43.706;10.780;2024-03-25T06:11:03;5.28;;;2.28;;
45114;SDS011;30877;43.706;10.780;2024-03-25T06:13:37;5.28;;;2.65;;
45114;SDS011;30877;43.706;10.780;2024-03-25T06:16:04;3.92;;;2.38;;
45114;SDS011;30877;43.706;10.780;2024-03-25T06:18:32;4.68;;;2.33;;
45114;SDS011;30877;43.706;10.780;2024-03-25T06:21:02;8.85;;;2.78;;
45114;SDS011;30877;43.706;10.780;2024-03-25T06:23:33;4.18;;;2.40;;
45114;SDS011;30877;43.706;10.780;2024-03-25T06:26:00;6.28;;;3.75;;
45114;SDS011;30877;43.706;10.780;2024-03-25T06:28:28;13.10;;;7.38;;
45114;SDS011;30877;43.706;10.780;2024-03-25T06:30:57;15.40;;;9.48;;
45114;SDS011;30877;43.706;10.780;2024-03-25T06:33:46;16.92;;;9.80;;
45114;SDS011;30877;43.706;10.780;2024-03-25T06:36:32;16.90;;;8.75;;
45114;SDS011;30877;43.706;10.780;2024-03-25T06:39:04;12.43;;;8.18;;
45114;SDS011;30877;43.706;10.780;2024-03-25T06:41:32;14.23;;;8.48;;
45114;SDS011;30877;43.706;10.780;2024-03-25T06:44:00;11.43;;;6.72;;
45114;SDS011;30877;43.706;10.780;2024-03-25T06:46:28;9.88;;;6.05;;
45114;SDS011;30877;43.706;10.780;2024-03-25T06:48:56;9.55;;;5.78;;
45114;SDS011;30877;43.706;10.780;2024-03-25T06:51:24;8.80;;;6.13;;
45114;SDS011;30877;43.706;10.780;2024-03-25T06:53:53;11.63;;;7.15;;
45114;SDS011;30877;43.706;10.780;2024-03-25T06:56:22;16.00;;;10.20;;
45114;SDS011;30877;43.706;10.780;2024-03-25T06:58:52;19.95;;;11.70;;
45114;SDS011;30877;43.706;10.780;2024-03-25T07:01:20;32.05;;;19.33;;
45114;SDS011;30877;43.706;10.780;2024-03-25T07:03:48;19.75;;;12.30;;
45114;SDS011;30877;43.706;10.780;2024-03-25T07:06:16;13.43;;;8.63;;
45114;SDS011;30877;43.706;10.780;2024-03-25T07:08:46;9.55;;;5.50;;
45114;SDS011;30877;43.706;10.780;2024-03-25T07:11:14;7.60;;;4.38;;
45114;SDS011;30877;43.706;10.780;2024-03-25T07:13:46;11.88;;;6.40;;
45114;SDS011;30877;43.706;10.780;2024-03-25T07:16:15;7.88;;;4.70;;
45114;SDS011;30877;43.706;10.780;2024-03-25T07:18:43;6.40;;;4.10;;
45114;SDS011;30877;43.706;10.780;2024-03-25T07:21:12;6.53;;;3.72;;
45114;SDS011;30877;43.706;10.780;2024-03-25T07:23:42;7.53;;;4.25;;
45114;SDS011;30877;43.706;10.780;2024-03-25T07:26:11;6.60;;;3.22;;
45114;SDS011;30877;43.706;10.780;2024-03-25T07:28:40;8.68;;;4.40;;
45114;SDS011;30877;43.706;10.780;2024-03-25T07:31:09;6.97;;;3.80;;
45114;SDS011;30877;43.706;10.780;2024-03-25T07:33:38;8.48;;;3.80;;
45114;SDS011;30877;43.706;10.780;2024-03-25T07:36:06;8.05;;;4.30;;
45114;SDS011;30877;43.706;10.780;2024-03-25T07:38:36;9.88;;;5.38;;
45114;SDS011;30877;43.706;10.780;2024-03-25T07:41:04;10.40;;;5.13;;
45114;SDS011;30877;43.706;10.780;2024-03-25T07:43:31;8.57;;;4.47;;
45114;SDS011;30877;43.706;10.780;2024-03-25T07:46:00;8.30;;;4.63;;
45114;SDS011;30877;43.706;10.780;2024-03-25T07:48:30;7.03;;;4.53;;
45114;SDS011;30877;43.706;10.780;2024-03-25T07:50:59;6.47;;;4.18;;
45114;SDS011;30877;43.706;10.780;2024-03-25T07:53:27;6.53;;;4.43;;
45114;SDS011;30877;43.706;10.780;2024-03-25T07:55:55;7.03;;;4.10;;
45114;SDS011;30877;43.706;10.780;2024-03-25T07:58:23;7.05;;;4.13;;
45114;SDS011;30877;43.706;10.780;2024-03-25T08:00:50;10.35;;;4.43;;
45114;SDS011;30877;43.706;10.780;2024-03-25T08:03:18;7.78;;;4.30;;
45114;SDS011;30877;43.706;10.780;2024-03-25T08:05:47;7.20;;;4.50;;
45114;SDS011;30877;43.706;10.780;2024-03-25T08:08:17;5.40;;;3.75;;
45114;SDS011;30877;43.706;10.780;2024-03-25T08:10:47;6.70;;;3.72;;
45114;SDS011;30877;43.706;10.780;2024-03-25T08:13:15;7.40;;;4.07;;
45114;SDS011;30877;43.706;10.780;2024-03-25T08:15:46;6.68;;;4.00;;
45114;SDS011;30877;43.706;10.780;2024-03-25T08:18:13;7.10;;;3.60;;
45114;SDS011;30877;43.706;10.780;2024-03-25T08:20:47;7.40;;;3.85;;
45114;SDS011;30877;43.706;10.780;2024-03-25T08:23:16;6.90;;;3.92;;
45114;SDS011;30877;43.706;10.780;2024-03-25T08:25:44;8.05;;;4.57;;
45114;SDS011;30877;43.706;10.780;2024-03-25T08:28:11;6.88;;;3.47;;
45114;SDS011;30877;43.706;10.780;2024-03-25T08:30:39;6.60;;;3.20;;
45114;SDS011;30877;43.706;10.780;2024-03-25T08:33:06;5.60;;;3.30;;
45114;SDS011;30877;43.706;10.780;2024-03-25T08:35:33;9.00;;;4.05;;
45114;SDS011;30877;43.706;10.780;2024-03-25T08:38:02;7.00;;;3.67;;
45114;SDS011;30877;43.706;10.780;2024-03-25T08:40:30;6.78;;;3.72;;
45114;SDS011;30877;43.706;10.780;2024-03-25T08:42:57;7.25;;;3.20;;
45114;SDS011;30877;43.706;10.780;2024-03-25T08:45:26;8.38;;;3.80;;
45114;SDS011;30877;43.706;10.780;2024-03-25T08:47:54;8.68;;;3.47;;
45114;SDS011;30877;43.706;10.780;2024-03-25T08:50:22;7.75;;;2.85;;
45114;SDS011;30877;43.706;10.780;2024-03-25T08:52:51;6.18;;;2.17;;
45114;SDS011;30877;43.706;10.780;2024-03-25T08:55:20;4.25;;;2.47;;
45114;SDS011;30877;43.706;10.780;2024-03-25T08:57:48;6.65;;;2.00;;
45114;SDS011;30877;43.706;10.780;2024-03-25T09:00:17;7.38;;;2.17;;
45114;SDS011;30877;43.706;10.780;2024-03-25T09:02:45;5.30;;;1.73;;
45114;SDS011;30877;43.706;10.780;2024-03-25T09:05:13;9.80;;;2.05;;
45114;SDS011;30877;43.706;10.780;2024-03-25T09:07:44;6.18;;;1.70;;
45114;SDS011;30877;43.706;10.780;2024-03-25T09:10:16;4.90;;;1.63;;
45114;SDS011;30877;43.706;10.780;2024-03-25T09:13:06;6.60;;;1.98;;
45114;SDS011;30877;43.706;10.780;2024-03-25T09:15:36;9.52;;;2.10;;
45114;SDS011;30877;43.706;10.780;2024-03-25T09:18:04;7.03;;;2.10;;
45114;SDS011;30877;43.706;10.780;2024-03-25T09:20:32;4.75;;;1.77;;
45114;SDS011;30877;43.706;10.780;2024-03-25T09:23:00;7.78;;;2.03;;
45114;SDS011;30877;43.706;10.780;2024-03-25T09:25:28;4.88;;;1.85;;
45114;SDS011;30877;43.706;10.780;2024-03-25T09:27:55;7.53;;;2.30;;
45114;SDS011;30877;43.706;10.780;2024-03-25T09:30:28;4.88;;;1.55;;
45114;SDS011;30877;43.706;10.780;2024-03-25T09:32:55;9.15;;;2.05;;
45114;SDS011;30877;43.706;10.780;2024-03-25T09:35:23;7.30;;;2.00;;
45114;SDS011;30877;43.706;10.780;2024-03-25T09:37:51;9.02;;;2.42;;
45114;SDS011;30877;43.706;10.780;2024-03-25T09:40:19;12.70;;;3.15;;
45114;SDS011;30877;43.706;10.780;2024-03-25T09:42:47;7.88;;;2.65;;
45114;SDS011;30877;43.706;10.780;2024-03-25T09:45:15;5.60;;;2.00;;
45114;SDS011;30877;43.706;10.780;2024-03-25T09:47:48;6.07;;;2.20;;
45114;SDS011;30877;43.706;10.780;2024-03-25T09:50:18;5.22;;;1.98;;
45114;SDS011;30877;43.706;10.780;2024-03-25T09:52:50;5.32;;;1.60;;
45114;SDS011;30877;43.706;10.780;2024-03-25T09:55:18;3.75;;;1.30;;
45114;SDS011;30877;43.706;10.780;2024-03-25T09:57:45;6.05;;;1.60;;
45114;SDS011;30877;43.706;10.780;2024-03-25T10:00:13;3.63;;;1.35;;
45114;SDS011;30877;43.706;10.780;2024-03-25T10:02:41;4.57;;;1.85;;
45114;SDS011;30877;43.706;10.780;2024-03-25T10:05:15;5.63;;;1.48;;
45114;SDS011;30877;43.706;10.780;2024-03-25T10:07:44;4.50;;;1.27;;
45114;SDS011;30877;43.706;10.780;2024-03-25T10:10:12;4.93;;;1.40;;
45114;SDS011;30877;43.706;10.780;2024-03-25T10:12:40;4.47;;;1.83;;
45114;SDS011;30877;43.706;10.780;2024-03-25T10:15:14;4.70;;;1.70;;
45114;SDS011;30877;43.706;10.780;2024-03-25T10:17:43;3.50;;;1.40;;
45114;SDS011;30877;43.706;10.780;2024-03-25T10:20:15;3.72;;;1.42;;
45114;SDS011;30877;43.706;10.780;2024-03-25T10:22:43;2.70;;;1.30;;
45114;SDS011;30877;43.706;10.780;2024-03-25T10:25:19;3.60;;;1.35;;
45114;SDS011;30877;43.706;10.780;2024-03-25T10:27:54;5.68;;;2.05;;
45114;SDS011;30877;43.706;10.780;2024-03-25T10:30:23;8.85;;;3.97;;
45114;SDS011;30877;43.706;10.780;2024-03-25T10:32:58;7.35;;;3.08;;
45114;SDS011;30877;43.706;10.780;2024-03-25T10:35:29;4.50;;;1.90;;
45114;SDS011;30877;43.706;10.780;2024-03-25T10:37:59;5.15;;;1.77;;
45114;SDS011;30877;43.706;10.780;2024-03-25T10:40:30;3.78;;;1.67;;
45114;SDS011;30877;43.706;10.780;2024-03-25T10:43:00;4.65;;;1.83;;
45114;SDS011;30877;43.706;10.780;2024-03-25T10:45:29;4.38;;;1.80;;
45114;SDS011;30877;43.706;10.780;2024-03-25T10:47:57;6.88;;;2.42;;
45114;SDS011;30877;43.706;10.780;2024-03-25T10:50:32;8.43;;;2.72;;
45114;SDS011;30877;43.706;10.780;2024-03-25T10:53:03;4.10;;;1.80;;
45114;SDS011;30877;43.706;10.780;2024-03-25T10:55:33;9.13;;;3.20;;
45114;SDS011;30877;43.706;10.780;2024-03-25T10:58:02;8.27;;;2.50;;
45114;SDS011;30877;43.706;10.780;2024-03-25T11:00:32;6.57;;;2.38;;
45114;SDS011;30877;43.706;10.780;2024-03-25T11:03:03;3.85;;;1.90;;
45114;SDS011;30877;43.706;10.780;2024-03-25T11:05:35;2.45;;;0.95;;
45114;SDS011;30877;43.706;10.780;2024-03-25T11:08:11;2.47;;;1.40;;
45114;SDS011;30877;43.706;10.780;2024-03-25T11:10:41;3.10;;;1.10;;
45114;SDS011;30877;43.706;10.780;2024-03-25T11:13:11;5.80;;;1.30;;
45114;SDS011;30877;43.706;10.780;2024-03-25T11:15:40;4.30;;;1.70;;
45114;SDS011;30877;43.706;10.780;2024-03-25T11:18:11;3.10;;;1.50;;
45114;SDS011;30877;43.706;10.780;2024-03-25T11:20:43;3.78;;;1.63;;
45114;SDS011;30877;43.706;10.780;2024-03-25T11:23:11;5.35;;;1.55;;
45114;SDS011;30877;43.706;10.780;2024-03-25T11:25:40;3.17;;;1.63;;
45114;SDS011;30877;43.706;10.780;2024-03-25T11:28:08;3.95;;;1.70;;
45114;SDS011;30877;43.706;10.780;2024-03-25T11:30:37;4.30;;;2.00;;
45114;SDS011;30877;43.706;10.780;2024-03-25T11:33:08;4.03;;;2.10;;
45114;SDS011;30877;43.706;10.780;2024-03-25T11:35:36;3.22;;;1.48;;
45114;SDS011;30877;43.706;10.780;2024-03-25T11:38:10;5.40;;;2.70;;
45114;SDS011;30877;43.706;10.780;2024-03-25T11:40:37;7.18;;;2.40;;
45114;SDS011;30877;43.706;10.780;2024-03-25T11:43:10;4.32;;;1.88;;
45114;SDS011;30877;43.706;10.780;2024-03-25T11:45:47;5.13;;;1.73;;
45114;SDS011;30877;43.706;10.780;2024-03-25T11:48:16;4.90;;;1.52;;
45114;SDS011;30877;43.706;10.780;2024-03-25T11:50:45;4.82;;;1.77;;
45114;SDS011;30877;43.706;10.780;2024-03-25T11:53:19;3.55;;;1.70;;
45114;SDS011;30877;43.706;10.780;2024-03-25T11:55:47;4.30;;;1.65;;
45114;SDS011;30877;43.706;10.780;2024-03-25T11:58:14;4.53;;;1.60;;
45114;SDS011;30877;43.706;10.780;2024-03-25T12:00:44;4.93;;;1.65;;
45114;SDS011;30877;43.706;10.780;2024-03-25T12:03:13;2.90;;;1.55;;
45114;SDS011;30877;43.706;10.780;2024-03-25T12:05:42;5.60;;;2.13;;
45114;SDS011;30877;43.706;10.780;2024-03-25T12:08:12;5.15;;;1.95;;
45114;SDS011;30877;43.706;10.780;2024-03-25T12:10:42;3.63;;;1.48;;
45114;SDS011;30877;43.706;10.780;2024-03-25T12:13:32;5.72;;;1.55;;
45114;SDS011;30877;43.706;10.780;2024-03-25T12:16:00;3.95;;;1.60;;
45114;SDS011;30877;43.706;10.780;2024-03-25T12:18:32;4.57;;;1.60;;
45114;SDS011;30877;43.706;10.780;2024-03-25T12:21:00;5.95;;;1.83;;
45114;SDS011;30877;43.706;10.780;2024-03-25T12:23:31;3.03;;;1.30;;
45114;SDS011;30877;43.706;10.780;2024-03-25T12:26:01;5.13;;;1.58;;
45114;SDS011;30877;43.706;10.780;2024-03-25T12:28:32;3.65;;;1.50;;
45114;SDS011;30877;43.706;10.780;2024-03-25T12:31:07;3.28;;;1.30;;
45114;SDS011;30877;43.706;10.780;2024-03-25T12:33:41;2.85;;;1.38;;
45114;SDS011;30877;43.706;10.780;2024-03-25T12:36:08;3.33;;;1.65;;
45114;SDS011;30877;43.706;10.780;2024-03-25T12:38:38;4.25;;;1.10;;
45114;SDS011;30877;43.706;10.780;2024-03-25T12:41:12;3.90;;;1.23;;
45114;SDS011;30877;43.706;10.780;2024-03-25T12:43:41;4.85;;;1.60;;
45114;SDS011;30877;43.706;10.780;2024-03-25T12:46:10;4.40;;;1.13;;
45114;SDS011;30877;43.706;10.780;2024-03-25T12:48:38;3.20;;;1.00;;
45114;SDS011;30877;43.706;10.780;2024-03-25T12:51:11;2.97;;;1.00;;
45114;SDS011;30877;43.706;10.780;2024-03-25T12:53:41;3.15;;;1.20;;
45114;SDS011;30877;43.706;10.780;2024-03-25T12:56:08;2.67;;;1.33;;
45114;SDS011;30877;43.706;10.780;2024-03-25T12:58:37;3.50;;;1.02;;
45114;SDS011;30877;43.706;10.780;2024-03-25T13:01:04;3.45;;;1.13;;
45114;SDS011;30877;43.706;10.780;2024-03-25T13:03:33;2.17;;;0.95;;
45114;SDS011;30877;43.706;10.780;2024-03-25T13:06:04;2.45;;;0.80;;
45114;SDS011;30877;43.706;10.780;2024-03-25T13:08:31;1.05;;;0.50;;
45114;SDS011;30877;43.706;10.780;2024-03-25T13:10:59;3.42;;;0.82;;
45114;SDS011;30877;43.706;10.780;2024-03-25T13:13:29;1.35;;;0.65;;
45114;SDS011;30877;43.706;10.780;2024-03-25T13:15:59;3.17;;;0.90;;
45114;SDS011;30877;43.706;10.780;2024-03-25T13:18:31;3.13;;;1.15;;
45114;SDS011;30877;43.706;10.780;2024-03-25T13:21:02;2.17;;;0.88;;
45114;SDS011;30877;43.706;10.780;2024-03-25T13:23:30;2.63;;;1.08;;
45114;SDS011;30877;43.706;10.780;2024-03-25T13:25:58;3.92;;;1.40;;
45114;SDS011;30877;43.706;10.780;2024-03-25T13:28:27;2.45;;;1.00;;
45114;SDS011;30877;43.706;10.780;2024-03-25T13:30:54;2.83;;;0.63;;
45114;SDS011;30877;43.706;10.780;2024-03-25T13:33:26;1.63;;;0.73;;
45114;SDS011;30877;43.706;10.780;2024-03-25T13:35:55;3.10;;;1.20;;
45114;SDS011;30877;43.706;10.780;2024-03-25T13:38:23;2.35;;;0.73;;
45114;SDS011;30877;43.706;10.780;2024-03-25T13:40:54;6.18;;;0.60;;
45114;SDS011;30877;43.706;10.780;2024-03-25T13:43:22;2.47;;;0.60;;
45114;SDS011;30877;43.706;10.780;2024-03-25T13:45:49;1.90;;;0.90;;
45114;SDS011;30877;43.706;10.780;2024-03-25T13:48:17;4.60;;;1.35;;
45114;SDS011;30877;43.706;10.780;2024-03-25T13:50:48;5.30;;;1.10;;
45114;SDS011;30877;43.706;10.780;2024-03-25T13:53:17;3.42;;;0.90;;
45114;SDS011;30877;43.706;10.780;2024-03-25T13:55:46;4.40;;;1.00;;
45114;SDS011;30877;43.706;10.780;2024-03-25T13:58:14;2.10;;;1.00;;
45114;SDS011;30877;43.706;10.780;2024-03-25T14:00:42;1.75;;;0.98;;
45114;SDS011;30877;43.706;10.780;2024-03-25T14:03:11;2.53;;;0.80;;
45114;SDS011;30877;43.706;10.780;2024-03-25T14:05:40;2.35;;;1.00;;
45114;SDS011;30877;43.706;10.780;2024-03-25T14:08:10;2.67;;;0.55;;
45114;SDS011;30877;43.706;10.780;2024-03-25T14:10:38;1.83;;;0.57;;
45114;SDS011;30877;43.706;10.780;2024-03-25T14:13:07;2.05;;;0.60;;
45114;SDS011;30877;43.706;10.780;2024-03-25T14:15:35;4.07;;;0.60;;
45114;SDS011;30877;43.706;10.780;2024-03-25T14:18:03;2.38;;;0.90;;
45114;SDS011;30877;43.706;10.780;2024-03-25T14:20:34;3.95;;;0.90;;
45114;SDS011;30877;43.706;10.780;2024-03-25T14:23:02;1.70;;;0.73;;
45114;SDS011;30877;43.706;10.780;2024-03-25T14:25:31;1.92;;;0.57;;
45114;SDS011;30877;43.706;10.780;2024-03-25T14:28:00;1.48;;;0.57;;
45114;SDS011;30877;43.706;10.780;2024-03-25T14:30:28;4.10;;;0.75;;
45114;SDS011;30877;43.706;10.780;2024-03-25T14:32:58;1.55;;;0.40;;
45114;SDS011;30877;43.706;10.780;2024-03-25T14:35:28;1.20;;;0.57;;
45114;SDS011;30877;43.706;10.780;2024-03-25T14:37:55;0.98;;;0.45;;
45114;SDS011;30877;43.706;10.780;2024-03-25T14:40:23;1.95;;;1.38;;
45114;SDS011;30877;43.706;10.780;2024-03-25T14:42:53;2.75;;;1.08;;
45114;SDS011;30877;43.706;10.780;2024-03-25T14:45:21;2.55;;;0.70;;